Time;durP1;ratioP1;P1;durP2;ratioP2;P2;SDS_P1;SDS_P2;PMS_P1;PMS_P2;Temp;Humidity;BMP_temperature;BMP_pressure;BME280_temperature;BME280_humidity;BME280_pressure;Samples;Min_cycle;Max_cycle;Signal;HPM_P1;HPM_P2
2023/09/20 00:01:03;;;;;;;0.10;0.10;;;15.90;99.90;;;;;;4995735;28;20257;-80
2023/09/20 00:03:31;;;;;;;0.40;0.40;;;15.90;99.90;;;;;;4997447;28;20456;-80
2023/09/20 00:05:59;;;;;;;0.17;0.17;;;16.00;99.90;;;;;;5001028;28;20040;-81
2023/09/20 00:08:25;;;;;;;0.35;0.10;;;15.90;99.90;;;;;;4999044;28;20034;-81
2023/09/20 00:10:51;;;;;;;0.75;0.35;;;16.00;99.90;;;;;;4997107;28;20041;-81
2023/09/20 00:13:17;;;;;;;0.45;0.30;;;16.00;99.90;;;;;;4998779;28;20026;-79
2023/09/20 00:15:43;;;;;;;0.10;0.10;;;16.10;99.90;;;;;;4999075;28;20041;-79
2023/09/20 00:18:11;;;;;;;0.17;0.17;;;16.20;99.90;;;;;;5010353;28;20034;-80
2023/09/20 00:20:39;;;;;;;0.40;0.20;;;16.10;99.90;;;;;;5001837;28;20057;-79
2023/09/20 00:23:06;;;;;;;0.10;0.10;;;16.10;99.90;;;;;;5007403;28;20030;-80
2023/09/20 00:25:32;;;;;;;0.10;0.10;;;16.10;99.90;;;;;;5011175;28;20033;-79
2023/09/20 00:27:58;;;;;;;1.00;0.68;;;16.10;99.90;;;;;;5000586;28;20100;-80
2023/09/20 00:30:24;;;;;;;0.10;0.10;;;16.10;99.90;;;;;;5002195;28;20046;-80
2023/09/20 00:32:50;;;;;;;0.05;0.05;;;16.10;99.90;;;;;;4999906;28;20038;-80
2023/09/20 00:35:17;;;;;;;0.15;0.15;;;16.00;99.90;;;;;;4996458;28;20261;-80
2023/09/20 00:37:45;;;;;;;0.08;0.08;;;16.00;99.90;;;;;;5006797;28;20034;-81
2023/09/20 00:40:21;;;;;;;0.10;0.10;;;15.90;99.90;;;;;;5005150;28;20035;-80
2023/09/20 00:42:49;;;;;;;0.10;0.10;;;15.90;99.90;;;;;;4989168;28;20400;-80
2023/09/20 00:45:19;;;;;;;0.20;0.20;;;16.00;99.90;;;;;;4996217;28;20472;-82
2023/09/20 00:47:57;;;;;;;0.10;0.10;;;16.00;99.90;;;;;;5010869;28;20049;-79
2023/09/20 00:50:31;;;;;;;0.10;0.10;;;16.00;99.90;;;;;;5001462;28;20065;-80
2023/09/20 00:52:59;;;;;;;0.70;0.70;;;16.00;99.90;;;;;;4999815;28;20041;-80
2023/09/20 00:55:30;;;;;;;0.10;0.10;;;16.00;99.90;;;;;;5009232;28;20042;-80
2023/09/20 00:58:07;;;;;;;0.17;0.17;;;16.10;99.90;;;;;;4998260;28;20026;-80
2023/09/20 01:00:34;;;;;;;1.63;0.60;;;16.00;99.90;;;;;;4998485;28;20391;-80
2023/09/20 01:03:01;;;;;;;0.10;0.10;;;16.00;1.00;;;;;;5001332;28;20053;-80
2023/09/20 01:05:28;;;;;;;0.32;0.32;;;16.10;99.90;;;;;;5007744;28;20037;-81
2023/09/20 01:07:56;;;;;;;0.90;0.30;;;16.00;99.90;;;;;;5003237;28;20026;-80
2023/09/20 01:10:26;;;;;;;0.70;0.30;;;16.10;99.90;;;;;;4995034;28;20066;-81
2023/09/20 01:12:54;;;;;;;0.10;0.10;;;16.10;99.90;;;;;;5001996;28;20023;-81
2023/09/20 01:15:21;;;;;;;0.25;0.25;;;16.10;99.90;;;;;;5011007;28;20272;-81
2023/09/20 01:17:50;;;;;;;0.17;0.17;;;16.10;99.90;;;;;;5001044;28;20045;-80
2023/09/20 01:20:20;;;;;;;1.42;0.40;;;16.00;99.90;;;;;;5001596;28;20419;-81
2023/09/20 01:22:47;;;;;;;0.95;0.45;;;16.10;1.00;;;;;;5006570;28;20371;-82
2023/09/20 01:25:24;;;;;;;0.47;0.20;;;16.00;99.90;;;;;;5004936;28;20033;-82
2023/09/20 01:27:56;;;;;;;0.40;0.30;;;16.00;1.00;;;;;;4999672;28;20034;-80
2023/09/20 01:30:26;;;;;;;0.13;0.13;;;16.00;1.00;;;;;;5003401;28;20050;-81
2023/09/20 01:32:54;;;;;;;0.63;0.57;;;16.00;1.00;;;;;;5007491;28;20037;-79
2023/09/20 01:35:22;;;;;;;0.30;0.20;;;15.90;1.00;;;;;;5001851;28;20045;-80
2023/09/20 01:37:51;;;;;;;0.32;0.32;;;15.90;1.00;;;;;;4996458;28;20038;-80
2023/09/20 01:40:19;;;;;;;0.10;0.10;;;15.80;1.00;;;;;;5002441;28;20037;-80
2023/09/20 01:42:48;;;;;;;0.47;0.38;;;15.80;1.00;;;;;;4997832;28;20042;-80
2023/09/20 01:45:18;;;;;;;0.40;0.32;;;15.80;1.00;;;;;;5010341;28;20131;-81
2023/09/20 01:47:45;;;;;;;;;;;15.80;1.00;;;;;;5024508;28;20037;-80
2023/09/20 01:50:13;;;;;;;0.38;0.38;;;15.70;1.00;;;;;;5009820;28;20366;-81
2023/09/20 01:52:41;;;;;;;0.73;0.73;;;15.80;1.00;;;;;;4998149;28;20043;-81
2023/09/20 01:55:11;;;;;;;0.20;0.20;;;15.70;1.00;;;;;;5001653;28;20035;-80
2023/09/20 01:57:37;;;;;;;0.10;0.10;;;15.70;1.00;;;;;;4999417;28;20034;-80
2023/09/20 02:00:16;;;;;;;0.47;0.45;;;15.70;1.00;;;;;;4992595;28;20042;-81
2023/09/20 02:02:46;;;;;;;0.10;0.10;;;15.70;1.00;;;;;;4992379;28;20050;-80
2023/09/20 02:05:13;;;;;;;0.52;0.45;;;15.70;1.00;;;;;;5010959;28;20037;-80
2023/09/20 02:07:41;;;;;;;0.10;0.10;;;15.70;1.00;;;;;;5002408;28;20034;-80
2023/09/20 02:10:09;;;;;;;0.10;0.10;;;15.70;1.00;;;;;;4997203;28;20445;-80
2023/09/20 02:12:35;;;;;;;0.13;0.13;;;15.70;1.00;;;;;;5000465;28;20030;-80
2023/09/20 02:15:07;;;;;;;1.65;0.90;;;15.70;1.00;;;;;;5006694;28;20045;-83
2023/09/20 02:17:35;;;;;;;0.45;0.45;;;15.70;1.00;;;;;;5000930;28;20041;-81
2023/09/20 02:20:08;;;;;;;0.25;0.25;;;15.70;1.00;;;;;;4998023;28;20041;-80
2023/09/20 02:22:39;;;;;;;0.28;0.28;;;15.70;1.00;;;;;;4998721;28;20044;-81
2023/09/20 02:25:12;;;;;;;1.42;0.30;;;15.80;1.00;;;;;;4982811;28;20042;-81
2023/09/20 02:27:48;;;;;;;0.10;0.10;;;15.80;1.00;;;;;;5008904;28;20037;-80
2023/09/20 02:30:16;;;;;;;0.30;0.30;;;15.70;1.00;;;;;;5005700;28;20045;-81
2023/09/20 02:32:43;;;;;;;0.22;0.20;;;15.70;1.00;;;;;;5001278;28;20040;-81
2023/09/20 02:35:10;;;;;;;0.35;0.35;;;15.70;1.00;;;;;;4997207;28;20349;-81
2023/09/20 02:37:37;;;;;;;0.10;0.10;;;15.60;1.00;;;;;;4998349;28;20034;-82
2023/09/20 02:40:07;;;;;;;0.30;0.30;;;15.60;1.00;;;;;;5000202;28;20030;-85
2023/09/20 02:42:47;;;;;;;0.65;0.52;;;15.60;1.00;;;;;;5000568;28;20036;-80
2023/09/20 02:45:17;;;;;;;0.25;0.17;;;15.50;1.00;;;;;;4991961;28;20042;-80
2023/09/20 02:47:46;;;;;;;0.88;0.85;;;15.50;1.00;;;;;;5010833;28;20049;-80
2023/09/20 02:50:14;;;;;;;0.32;0.28;;;15.60;1.00;;;;;;5002528;28;20030;-81
2023/09/20 02:52:40;;;;;;;0.40;0.17;;;15.50;1.00;;;;;;4996692;28;20375;-80
2023/09/20 02:55:08;;;;;;;0.57;0.45;;;15.50;1.00;;;;;;4997817;28;20037;-79
2023/09/20 02:57:38;;;;;;;0.88;0.85;;;15.50;1.00;;;;;;5001206;28;20420;-78
2023/09/20 03:00:15;;;;;;;0.65;0.55;;;15.50;1.00;;;;;;4999949;28;20431;-80
2023/09/20 03:02:46;;;;;;;5.72;0.88;;;15.50;1.00;;;;;;4993487;28;20034;-80
2023/09/20 03:05:17;;;;;;;0.65;0.50;;;15.40;1.00;;;;;;5008960;28;20049;-80
2023/09/20 03:07:49;;;;;;;1.35;0.28;;;15.40;1.00;;;;;;4997731;28;20030;-80
2023/09/20 03:10:21;;;;;;;0.57;0.38;;;15.40;1.00;;;;;;4997555;28;20042;-80
2023/09/20 03:12:53;;;;;;;0.15;0.15;;;15.40;1.00;;;;;;5010132;28;20053;-80
2023/09/20 03:15:21;;;;;;;0.55;0.43;;;15.40;1.00;;;;;;5001286;28;20041;-80
2023/09/20 03:17:57;;;;;;;0.10;0.10;;;15.50;1.00;;;;;;5001163;28;20042;-79
2023/09/20 03:20:24;;;;;;;1.05;0.70;;;15.50;1.00;;;;;;5000345;28;20041;-79
2023/09/20 03:22:57;;;;;;;0.10;0.10;;;15.50;1.00;;;;;;4999525;28;20034;-79
2023/09/20 03:25:25;;;;;;;0.40;0.10;;;15.50;1.00;;;;;;4995057;28;20046;-79
2023/09/20 03:27:54;;;;;;;0.10;0.10;;;15.50;1.00;;;;;;4994678;28;20045;-79
2023/09/20 03:30:21;;;;;;;1.35;1.00;;;15.50;1.00;;;;;;5005915;28;20364;-80
2023/09/20 03:32:49;;;;;;;0.10;0.10;;;15.50;1.00;;;;;;4999453;28;20033;-80
2023/09/20 03:35:19;;;;;;;1.65;0.47;;;15.50;1.00;;;;;;4986223;28;20043;-79
2023/09/20 03:37:46;;;;;;;0.30;0.23;;;15.50;1.00;;;;;;5001820;28;20042;-80
2023/09/20 03:40:18;;;;;;;0.30;0.30;;;15.50;1.00;;;;;;5004544;28;20041;-83
2023/09/20 03:42:46;;;;;;;0.40;0.38;;;15.50;1.00;;;;;;5000922;28;20042;-80
2023/09/20 03:45:14;;;;;;;0.10;0.10;;;15.40;1.00;;;;;;5012682;28;20061;-80
2023/09/20 03:47:42;;;;;;;0.10;0.10;;;15.40;1.00;;;;;;5018486;28;20045;-80
2023/09/20 03:50:12;;;;;;;0.52;0.43;;;15.40;1.00;;;;;;5002200;28;20027;-83
2023/09/20 03:52:39;;;;;;;0.10;0.10;;;15.30;1.00;;;;;;5006973;28;20046;-80
2023/09/20 03:55:06;;;;;;;1.00;0.38;;;15.30;1.00;;;;;;4998713;28;20110;-79
2023/09/20 03:57:34;;;;;;;2.20;0.65;;;15.30;1.00;;;;;;5003068;28;20038;-79
2023/09/20 04:00:06;;;;;;;0.38;0.38;;;15.30;1.00;;;;;;5003239;28;20368;-80
2023/09/20 04:02:39;;;;;;;1.75;0.75;;;15.30;1.00;;;;;;5009100;28;20045;-80
2023/09/20 04:05:13;;;;;;;0.10;0.10;;;15.40;1.00;;;;;;5010286;28;20045;-82
2023/09/20 04:07:41;;;;;;;0.10;0.10;;;15.40;1.00;;;;;;5003289;28;20459;-79
2023/09/20 04:10:10;;;;;;;0.88;0.20;;;15.40;1.00;;;;;;5002047;28;20034;-84
2023/09/20 04:12:36;;;;;;;2.50;0.35;;;15.40;1.00;;;;;;5007684;28;20357;-79
2023/09/20 04:15:04;;;;;;;0.30;0.30;;;15.30;1.00;;;;;;4985459;28;20041;-80
2023/09/20 04:17:32;;;;;;;0.50;0.50;;;15.40;1.00;;;;;;5011325;28;20070;-79
2023/09/20 04:20:00;;;;;;;0.20;0.20;;;15.40;1.00;;;;;;5013597;28;20379;-81
2023/09/20 04:22:27;;;;;;;1.00;0.63;;;15.40;1.00;;;;;;5007474;28;20045;-80
2023/09/20 04:24:53;;;;;;;0.38;0.38;;;15.40;1.00;;;;;;5003889;28;20038;-81
2023/09/20 04:27:21;;;;;;;0.10;0.10;;;15.40;1.00;;;;;;5010168;28;20482;-80
2023/09/20 04:29:47;;;;;;;0.70;0.70;;;15.40;1.00;;;;;;5010351;28;20395;-81
2023/09/20 04:32:13;;;;;;;0.20;0.20;;;15.30;1.00;;;;;;5017162;28;20042;-79
2023/09/20 04:34:40;;;;;;;0.32;0.32;;;15.30;1.00;;;;;;5010085;28;20046;-79
2023/09/20 04:37:06;;;;;;;0.20;0.20;;;15.30;1.00;;;;;;4998516;28;20029;-80
2023/09/20 04:39:32;;;;;;;3.13;0.50;;;15.30;1.00;;;;;;5023435;28;20050;-80
2023/09/20 04:41:59;;;;;;;0.13;0.13;;;15.40;1.00;;;;;;5011215;28;20029;-80
2023/09/20 04:44:25;;;;;;;0.95;0.47;;;15.40;1.00;;;;;;4993984;28;20483;-79
2023/09/20 04:46:51;;;;;;;0.20;0.20;;;15.40;1.00;;;;;;5024070;28;20030;-79
2023/09/20 04:49:19;;;;;;;0.35;0.35;;;15.40;1.00;;;;;;4989417;28;20038;-79
2023/09/20 04:51:46;;;;;;;0.35;0.30;;;15.30;1.00;;;;;;5014493;28;20049;-79
2023/09/20 04:54:14;;;;;;;0.68;0.50;;;15.30;1.00;;;;;;5011719;28;20046;-80
2023/09/20 04:56:47;;;;;;;0.90;0.75;;;15.30;1.00;;;;;;4996992;28;20038;-79
2023/09/20 04:59:15;;;;;;;1.02;0.95;;;15.30;1.00;;;;;;5010011;28;20061;-83
2023/09/20 05:01:45;;;;;;;0.10;0.10;;;15.30;1.00;;;;;;5009679;28;20046;-79
2023/09/20 05:04:13;;;;;;;0.52;0.50;;;15.40;1.00;;;;;;4999389;28;20038;-82
2023/09/20 05:06:43;;;;;;;0.20;0.20;;;15.40;1.00;;;;;;5003545;28;20041;-80
2023/09/20 05:09:09;;;;;;;1.00;0.40;;;15.40;1.00;;;;;;5010367;28;20038;-79
2023/09/20 05:11:35;;;;;;;0.95;0.90;;;15.40;1.00;;;;;;5011353;28;20628;-78
2023/09/20 05:14:03;;;;;;;0.13;0.13;;;15.40;1.00;;;;;;5010630;28;20042;-80
2023/09/20 05:16:29;;;;;;;0.45;0.40;;;15.40;99.90;;;;;;4996845;28;20026;-81
2023/09/20 05:18:56;;;;;;;0.47;0.47;;;15.40;99.90;;;;;;4995829;28;20057;-80
2023/09/20 05:21:22;;;;;;;0.20;0.10;;;15.40;99.90;;;;;;4998511;28;20117;-80
2023/09/20 05:23:48;;;;;;;0.65;0.40;;;15.50;99.90;;;;;;5009101;28;20034;-79
2023/09/20 05:26:15;;;;;;;0.30;0.30;;;15.50;99.90;;;;;;4998313;28;20329;-82
2023/09/20 05:28:41;;;;;;;1.92;0.77;;;15.50;99.90;;;;;;4996063;28;20042;-79
2023/09/20 05:31:07;;;;;;;0.28;0.28;;;15.50;99.90;;;;;;5009082;28;20050;-80
2023/09/20 05:33:34;;;;;;;1.27;0.63;;;15.60;99.90;;;;;;5002726;28;20443;-80
2023/09/20 05:36:00;;;;;;;0.60;0.60;;;15.60;99.90;;;;;;5010864;28;20030;-80
2023/09/20 05:38:27;;;;;;;0.55;0.52;;;15.60;99.90;;;;;;5000698;28;20030;-80
2023/09/20 05:40:53;;;;;;;0.20;0.20;;;15.60;99.90;;;;;;4996966;28;20045;-80
2023/09/20 05:43:19;;;;;;;0.20;0.20;;;15.70;99.90;;;;;;4994856;28;20041;-81
2023/09/20 05:45:45;;;;;;;0.35;0.35;;;15.70;99.90;;;;;;5003368;28;20045;-80
2023/09/20 05:48:12;;;;;;;0.75;0.45;;;15.70;99.90;;;;;;5007514;28;20022;-80
2023/09/20 05:50:41;;;;;;;0.57;0.57;;;15.70;99.90;;;;;;5000968;28;20041;-80
2023/09/20 05:53:10;;;;;;;0.30;0.30;;;15.80;99.90;;;;;;4996829;28;20041;-80
2023/09/20 05:55:44;;;;;;;0.17;0.17;;;15.80;99.90;;;;;;4996707;28;20026;-80
2023/09/20 05:58:12;;;;;;;0.30;0.30;;;15.90;99.90;;;;;;4998857;28;20482;-80
2023/09/20 06:00:38;;;;;;;0.22;0.20;;;16.00;99.90;;;;;;4994457;28;20614;-80
2023/09/20 06:03:04;;;;;;;0.20;0.10;;;16.10;99.90;;;;;;4996334;28;20034;-80
2023/09/20 06:05:35;;;;;;;6.65;1.10;;;16.20;99.90;;;;;;4999853;28;20057;-79
2023/09/20 06:08:01;;;;;;;;;;;16.20;99.90;;;;;;5003480;28;20038;-79
2023/09/20 06:10:27;;;;;;;1.55;1.27;;;16.30;99.90;;;;;;4998214;28;20283;-81
2023/09/20 06:12:53;;;;;;;0.20;0.15;;;16.40;99.90;;;;;;5008748;28;20057;-80
2023/09/20 06:15:20;;;;;;;0.10;0.10;;;16.40;99.90;;;;;;5003355;28;20368;-80
2023/09/20 06:17:49;;;;;;;0.10;0.10;;;16.50;99.90;;;;;;4999286;28;20034;-80
2023/09/20 06:20:19;;;;;;;0.10;0.10;;;16.50;99.90;;;;;;4996341;28;20030;-82
2023/09/20 06:22:50;;;;;;;0.13;0.13;;;16.60;99.90;;;;;;4996368;28;20027;-80
2023/09/20 06:25:20;;;;;;;0.77;0.38;;;16.60;99.90;;;;;;4995888;28;20038;-81
2023/09/20 06:27:53;;;;;;;0.10;0.10;;;16.60;99.90;;;;;;5003198;28;20030;-80
2023/09/20 06:30:24;;;;;;;0.65;0.40;;;16.70;99.90;;;;;;5001608;28;20050;-78
2023/09/20 06:32:50;;;;;;;0.10;0.10;;;16.80;99.90;;;;;;5018114;28;20038;-82
2023/09/20 06:35:22;;;;;;;0.50;0.50;;;16.80;99.90;;;;;;5002354;28;20030;-82
2023/09/20 06:37:49;;;;;;;0.25;0.25;;;16.80;99.90;;;;;;5001609;28;20022;-82
2023/09/20 06:40:22;;;;;;;0.52;0.30;;;16.90;99.90;;;;;;5013758;28;20034;-84
2023/09/20 06:42:50;;;;;;;0.95;0.40;;;16.90;99.90;;;;;;4998683;28;20036;-83
2023/09/20 06:45:17;;;;;;;0.57;0.57;;;17.00;99.90;;;;;;4995843;28;20030;-83
2023/09/20 06:47:44;;;;;;;0.30;0.20;;;17.20;99.90;;;;;;4999003;28;20021;-83
2023/09/20 06:50:13;;;;;;;0.10;0.10;;;17.60;99.90;;;;;;5009389;28;20031;-83
2023/09/20 06:52:42;;;;;;;0.17;0.17;;;18.00;99.90;;;;;;5006652;28;20616;-83
2023/09/20 06:55:12;;;;;;;0.30;0.20;;;18.30;99.90;;;;;;5006079;28;20034;-83
2023/09/20 06:57:38;;;;;;;0.10;0.10;;;18.40;99.90;;;;;;5005164;28;20069;-86
2023/09/20 07:00:19;;;;;;;0.10;0.10;;;18.50;99.90;;;;;;5000299;28;20026;-82
2023/09/20 07:02:46;;;;;;;0.10;0.10;;;18.70;97.40;;;;;;4994538;28;20034;-82
2023/09/20 07:05:13;;;;;;;0.82;0.52;;;19.00;90.90;;;;;;5001274;28;20034;-82
2023/09/20 07:07:42;;;;;;;0.38;0.20;;;19.10;76.10;;;;;;5006474;28;20229;-81
2023/09/20 07:10:09;;;;;;;0.40;0.40;;;18.90;72.90;;;;;;5001372;28;20037;-83
2023/09/20 07:12:36;;;;;;;0.25;0.25;;;18.70;95.10;;;;;;5005682;28;20370;-82
2023/09/20 07:15:06;;;;;;;0.68;0.40;;;18.70;97.60;;;;;;5008794;28;20030;-82
2023/09/20 07:17:32;;;;;;;0.82;0.40;;;18.60;99.90;;;;;;5005309;28;20049;-83
2023/09/20 07:19:58;;;;;;;0.20;0.20;;;18.60;96.10;;;;;;5003029;28;20033;-84
2023/09/20 07:22:25;;;;;;;0.20;0.20;;;18.70;99.90;;;;;;5010042;28;20352;-84
2023/09/20 07:24:54;;;;;;;0.30;0.30;;;18.70;93.00;;;;;;5006386;28;20034;-83
2023/09/20 07:27:21;;;;;;;0.40;0.40;;;18.80;95.30;;;;;;5014597;28;20037;-82
2023/09/20 07:29:49;;;;;;;1.05;0.30;;;18.90;89.70;;;;;;5006425;28;20057;-83
2023/09/20 07:32:15;;;;;;;0.25;0.22;;;19.00;95.00;;;;;;5009438;28;20459;-83
2023/09/20 07:34:41;;;;;;;0.13;0.13;;;19.00;90.60;;;;;;5017792;28;20038;-84
2023/09/20 07:37:07;;;;;;;0.50;0.47;;;19.10;87.00;;;;;;5012152;28;20023;-83
2023/09/20 07:39:34;;;;;;;1.20;0.70;;;19.10;69.30;;;;;;5009193;28;20380;-80
2023/09/20 07:42:00;;;;;;;0.10;0.10;;;19.10;65.50;;;;;;5008739;28;20037;-84
2023/09/20 07:44:30;;;;;;;0.10;0.10;;;19.10;75.40;;;;;;5003302;28;20026;-83
2023/09/20 07:46:59;;;;;;;7.03;0.75;;;19.10;71.80;;;;;;5004987;28;20038;-83
2023/09/20 07:49:25;;;;;;;1.67;0.50;;;19.20;75.00;;;;;;5014025;28;20030;-82
2023/09/20 07:51:54;;;;;;;0.10;0.10;;;19.50;60.80;;;;;;5002955;28;20045;-84
2023/09/20 07:54:20;;;;;;;0.22;0.22;;;19.80;56.50;;;;;;5002258;28;20041;-83
2023/09/20 07:56:52;;;;;;;0.20;0.20;;;20.10;31.60;;;;;;5007900;28;20038;-83
2023/09/20 07:59:23;;;;;;;0.22;0.22;;;20.10;15.00;;;;;;5008349;28;20030;-84
2023/09/20 08:01:52;;;;;;;0.20;0.10;;;20.10;18.50;;;;;;5004182;28;20030;-82
2023/09/20 08:04:20;;;;;;;0.70;0.47;;;20.10;21.10;;;;;;5009097;28;20041;-82
2023/09/20 08:06:47;;;;;;;1.85;0.30;;;19.90;26.70;;;;;;5007487;28;20269;-83
2023/09/20 08:09:14;;;;;;;0.55;0.55;;;19.90;40.50;;;;;;5014814;28;20097;-82
2023/09/20 08:11:40;;;;;;;0.55;0.50;;;19.80;24.80;;;;;;5016704;28;20053;-84
2023/09/20 08:14:06;;;;;;;0.40;0.25;;;19.90;38.20;;;;;;5000391;28;20034;-82
2023/09/20 08:16:33;;;;;;;0.45;0.45;;;20.00;23.30;;;;;;5015912;28;20032;-82
2023/09/20 08:21:43;;;;;;;1.63;0.90;;;20.10;14.20;;;;;;5004865;28;20029;-84
2023/09/20 09:00:27;;;;;;;0.10;0.10;;;21.10;1.00;;;;;;5006987;28;20065;-83
2023/09/20 09:02:56;;;;;;;0.52;0.50;;;21.10;1.00;;;;;;5003635;28;20427;-83
2023/09/20 09:05:24;;;;;;;0.20;0.20;;;21.20;1.00;;;;;;5003994;28;20046;-82
2023/09/20 09:07:51;;;;;;;6.15;0.50;;;21.60;1.00;;;;;;5004280;28;20396;-83
2023/09/20 09:10:18;;;;;;;0.35;0.30;;;22.10;1.00;;;;;;4998795;28;20038;-86
2023/09/20 09:12:44;;;;;;;1.20;0.57;;;22.40;1.00;;;;;;5002764;28;20479;-82
2023/09/20 09:15:11;;;;;;;0.28;0.28;;;22.40;1.00;;;;;;4999389;28;20023;-83
2023/09/20 09:17:39;;;;;;;0.22;0.22;;;22.20;1.00;;;;;;4997497;28;20399;-83
2023/09/20 09:20:10;;;;;;;9.00;1.08;;;22.60;1.00;;;;;;4995721;28;20030;-79
2023/09/20 09:22:40;;;;;;;0.17;0.17;;;23.00;1.00;;;;;;4998941;28;20495;-82
2023/09/20 09:25:18;;;;;;;0.13;0.13;;;23.00;1.00;;;;;;5005768;28;20478;-82
2023/09/20 09:27:44;;;;;;;0.30;0.30;;;22.70;1.00;;;;;;4997797;28;20041;-79
2023/09/20 09:30:15;;;;;;;0.98;0.60;;;22.30;1.00;;;;;;5000150;28;20033;-82
2023/09/20 09:32:43;;;;;;;0.15;0.15;;;22.00;1.00;;;;;;5002378;28;20034;-83
2023/09/20 09:35:10;;;;;;;1.75;0.77;;;22.10;1.00;;;;;;5010342;28;20033;-81
2023/09/20 09:37:37;;;;;;;0.10;0.10;;;22.20;1.00;;;;;;5005481;28;20057;-83
2023/09/20 09:40:06;;;;;;;0.10;0.10;;;22.10;1.00;;;;;;4999711;28;20045;-82
2023/09/20 09:42:32;;;;;;;0.30;0.30;;;22.20;1.00;;;;;;5000013;28;20355;-83
2023/09/20 09:45:01;;;;;;;1.40;0.68;;;22.30;1.00;;;;;;5010382;28;20046;-83
2023/09/20 09:47:29;;;;;;;0.43;0.43;;;22.30;1.00;;;;;;5004488;28;20034;-84
2023/09/20 09:49:59;;;;;;;0.10;0.10;;;22.30;1.00;;;;;;5000249;28;20041;-83
2023/09/20 09:52:27;;;;;;;0.10;0.10;;;22.20;1.00;;;;;;5000264;28;20046;-83
2023/09/20 09:54:54;;;;;;;0.35;0.35;;;22.20;1.00;;;;;;5002478;28;20041;-83
2023/09/20 09:57:21;;;;;;;0.20;0.20;;;22.30;1.00;;;;;;5002245;28;20125;-83
2023/09/20 09:59:48;;;;;;;0.10;0.10;;;22.40;1.00;;;;;;4992874;28;20037;-84
2023/09/20 10:02:19;;;;;;;0.30;0.30;;;22.60;1.00;;;;;;4996080;28;20499;-83
2023/09/20 10:05:07;;;;;;;0.32;0.32;;;22.60;1.00;;;;;;5001815;28;20034;-83
2023/09/20 10:07:38;;;;;;;0.20;0.20;;;22.80;1.00;;;;;;5006542;28;20049;-84
2023/09/20 10:10:13;;;;;;;0.55;0.55;;;22.90;1.00;;;;;;4996329;28;20217;-83
2023/09/20 10:12:40;;;;;;;0.95;0.95;;;23.10;1.00;;;;;;5014794;28;20029;-84
2023/09/20 10:15:07;;;;;;;0.20;0.20;;;23.30;1.00;;;;;;5001366;28;20049;-83
2023/09/20 10:17:34;;;;;;;0.25;0.25;;;23.60;1.00;;;;;;5002220;28;20034;-83
2023/09/20 10:20:07;;;;;;;0.30;0.30;;;23.50;1.00;;;;;;4996675;28;20038;-83
2023/09/20 10:22:41;;;;;;;0.43;0.43;;;23.30;1.00;;;;;;5003188;28;20037;-82
2023/09/20 10:25:34;;;;;;;0.30;0.30;;;23.30;1.00;;;;;;4995675;28;20380;-84
2023/09/20 10:28:08;;;;;;;0.20;0.20;;;23.20;1.00;;;;;;4997229;28;20030;-82
2023/09/20 10:31:04;;;;;;;0.20;0.20;;;23.10;1.00;;;;;;5009691;28;20471;-84
2023/09/20 10:33:48;;;;;;;0.52;0.52;;;23.30;1.00;;;;;;4998784;28;20030;-83
2023/09/20 10:36:19;;;;;;;0.20;0.20;;;23.20;1.00;;;;;;4997641;28;20355;-83
2023/09/20 10:38:47;;;;;;;0.35;0.35;;;23.10;1.00;;;;;;4999504;28;20042;-83
2023/09/20 10:41:14;;;;;;;0.30;0.30;;;23.30;1.00;;;;;;4999464;28;20030;-86
2023/09/20 10:43:46;;;;;;;0.22;0.22;;;23.60;1.00;;;;;;4996325;28;20026;-83
2023/09/20 10:46:19;;;;;;;0.10;0.10;;;23.90;1.00;;;;;;4995901;28;20043;-86
2023/09/20 10:48:53;;;;;;;0.40;0.40;;;24.20;1.00;;;;;;4994663;28;20038;-86
2023/09/20 10:51:43;;;;;;;0.52;0.52;;;24.40;1.00;;;;;;5003657;28;20018;-85
2023/09/20 10:54:34;;;;;;;0.10;0.10;;;24.80;1.00;;;;;;4996000;28;20479;-85
2023/09/20 10:57:10;;;;;;;0.30;0.30;;;25.30;1.00;;;;;;5003655;28;20371;-86
2023/09/20 10:59:38;;;;;;;0.40;0.40;;;25.80;1.00;;;;;;5006285;28;20042;-85
2023/09/20 11:02:16;;;;;;;0.57;0.57;;;26.00;1.00;;;;;;4996746;28;20502;-87
2023/09/20 11:04:42;;;;;;;0.10;0.10;;;25.80;1.00;;;;;;4999316;28;20046;-86
2023/09/20 11:07:09;;;;;;;0.45;0.20;;;25.70;1.00;;;;;;4997328;28;20031;-81
2023/09/20 11:09:38;;;;;;;0.45;0.45;;;25.60;1.00;;;;;;4992902;28;20080;-83
2023/09/20 11:12:06;;;;;;;0.20;0.20;;;25.30;1.00;;;;;;4994294;28;20035;-85
2023/09/20 11:14:41;;;;;;;2.22;0.57;;;25.20;1.00;;;;;;5006893;28;20037;-81
2023/09/20 11:17:08;;;;;;;0.65;0.57;;;24.80;1.00;;;;;;4998589;28;20042;-85
2023/09/20 11:19:35;;;;;;;0.70;0.40;;;24.60;1.00;;;;;;4997779;28;20253;-85
2023/09/20 11:22:03;;;;;;;0.75;0.57;;;24.80;1.00;;;;;;5009471;28;20038;-84
2023/09/20 11:24:29;;;;;;;0.70;0.50;;;24.70;1.00;;;;;;5005807;28;20050;-84
2023/09/20 11:26:56;;;;;;;0.10;0.10;;;25.00;1.00;;;;;;5000339;28;20045;-85
2023/09/20 11:29:24;;;;;;;0.32;0.32;;;25.20;1.00;;;;;;5000657;28;20038;-85
2023/09/20 11:31:55;;;;;;;0.10;0.10;;;25.40;1.00;;;;;;4993213;28;20046;-80
2023/09/20 11:34:21;;;;;;;3.70;0.35;;;25.20;1.00;;;;;;5008652;28;20049;-83
2023/09/20 11:36:48;;;;;;;1.63;0.30;;;24.80;1.00;;;;;;4993952;28;20038;-84
2023/09/20 11:39:14;;;;;;;0.45;0.32;;;25.20;1.00;;;;;;5006323;28;20034;-84
2023/09/20 11:41:44;;;;;;;0.30;0.30;;;25.40;1.00;;;;;;5001037;28;20045;-85
2023/09/20 11:44:11;;;;;;;0.20;0.20;;;25.60;1.00;;;;;;5004078;28;20037;-85
2023/09/20 11:46:37;;;;;;;0.20;0.20;;;25.70;1.00;;;;;;4991683;28;20038;-82
2023/09/20 11:49:05;;;;;;;0.28;0.28;;;25.70;1.00;;;;;;5003629;28;20030;-82
2023/09/20 11:51:39;;;;;;;0.20;0.20;;;25.50;1.00;;;;;;4995705;28;20089;-85
2023/09/20 11:54:06;;;;;;;1.42;0.95;;;25.60;1.00;;;;;;4999232;28;20053;-87
2023/09/20 11:56:34;;;;;;;0.20;0.20;;;25.80;1.00;;;;;;5003329;28;20022;-86
2023/09/20 11:59:06;;;;;;;0.40;0.30;;;25.70;1.00;;;;;;5008687;28;20041;-84
2023/09/20 12:01:36;;;;;;;0.22;0.22;;;25.80;1.00;;;;;;5010466;28;20042;-85
2023/09/20 12:04:03;;;;;;;1.17;0.43;;;25.60;1.00;;;;;;5006464;28;20041;-86
2023/09/20 12:06:31;;;;;;;0.20;0.20;;;25.60;1.00;;;;;;5020923;28;20037;-85
2023/09/20 12:09:00;;;;;;;0.10;0.10;;;25.80;1.00;;;;;;5006901;28;20046;-86
2023/09/20 12:11:26;;;;;;;0.20;0.20;;;25.90;1.00;;;;;;5002018;28;20057;-85
2023/09/20 12:13:52;;;;;;;0.35;0.35;;;25.90;1.00;;;;;;5002929;28;20034;-87
2023/09/20 12:16:18;;;;;;;0.82;0.40;;;25.90;1.00;;;;;;5000990;28;20026;-87
2023/09/20 12:18:45;;;;;;;1.83;0.32;;;25.70;1.00;;;;;;5002823;28;20356;-86
2023/09/20 12:21:12;;;;;;;0.17;0.17;;;25.60;1.00;;;;;;5000336;28;20032;-86
2023/09/20 12:23:41;;;;;;;0.10;0.10;;;25.60;1.00;;;;;;5012208;28;20033;-83
2023/09/20 12:26:11;;;;;;;0.75;0.35;;;25.50;1.00;;;;;;5004041;28;20045;-82
2023/09/20 12:28:38;;;;;;;0.10;0.10;;;25.60;1.00;;;;;;4999167;28;20067;-82
2023/09/20 12:31:05;;;;;;;0.45;0.40;;;25.60;1.00;;;;;;5006271;28;20391;-83
2023/09/20 12:33:32;;;;;;;0.20;0.20;;;25.70;1.00;;;;;;5000339;28;20077;-83
2023/09/20 12:36:01;;;;;;;0.30;0.30;;;25.80;1.00;;;;;;4997417;28;20070;-84
2023/09/20 12:38:29;;;;;;;0.75;0.75;;;25.80;1.00;;;;;;5004346;28;20026;-82
2023/09/20 12:40:56;;;;;;;0.10;0.10;;;25.90;1.00;;;;;;5006249;28;20040;-84
2023/09/20 12:43:23;;;;;;;1.88;0.43;;;25.90;1.00;;;;;;5003089;28;20038;-83
2023/09/20 12:45:52;;;;;;;0.55;0.40;;;25.90;1.00;;;;;;5001648;28;20309;-84
2023/09/20 12:48:19;;;;;;;0.40;0.40;;;25.90;1.00;;;;;;5004007;28;20037;-81
2023/09/20 12:50:46;;;;;;;0.55;0.55;;;26.00;1.00;;;;;;5003167;28;20034;-82
2023/09/20 12:53:12;;;;;;;0.15;0.15;;;26.00;1.00;;;;;;5000279;28;20039;-83
2023/09/20 12:55:39;;;;;;;1.17;1.08;;;26.10;1.00;;;;;;4999660;28;20048;-83
2023/09/20 12:58:07;;;;;;;3.75;1.30;;;26.20;1.00;;;;;;4997060;28;20031;-84
2023/09/20 13:00:34;;;;;;;0.25;0.20;;;26.20;1.00;;;;;;4999925;28;20042;-83
2023/09/20 13:03:05;;;;;;;0.20;0.20;;;26.10;1.00;;;;;;5011456;28;20053;-83
2023/09/20 13:05:32;;;;;;;0.52;0.50;;;26.10;1.00;;;;;;5003398;28;20034;-82
2023/09/20 13:07:59;;;;;;;0.98;0.45;;;26.00;1.00;;;;;;5012517;28;20038;-86
2023/09/20 13:10:26;;;;;;;0.52;0.40;;;25.80;1.00;;;;;;5000297;28;20443;-83
2023/09/20 13:12:53;;;;;;;0.22;0.22;;;25.70;1.00;;;;;;4999669;28;20050;-85
2023/09/20 13:15:20;;;;;;;1.27;0.75;;;25.70;1.00;;;;;;5010528;28;20137;-83
2023/09/20 13:17:55;;;;;;;0.57;0.57;;;25.70;1.00;;;;;;4996550;28;20041;-83
2023/09/20 13:20:24;;;;;;;0.15;0.15;;;25.70;1.00;;;;;;4995987;28;20037;-83
2023/09/20 13:22:54;;;;;;;0.50;0.50;;;25.50;1.00;;;;;;5001622;28;20467;-81
2023/09/20 13:25:21;;;;;;;0.20;0.20;;;25.30;1.00;;;;;;5005450;28;20041;-83
2023/09/20 13:27:49;;;;;;;0.38;0.38;;;25.40;1.00;;;;;;4998253;28;20383;-83
2023/09/20 13:30:17;;;;;;;0.43;0.43;;;25.50;1.00;;;;;;5002928;28;20049;-83
2023/09/20 13:32:46;;;;;;;0.10;0.10;;;25.60;1.00;;;;;;5003088;28;20038;-82
2023/09/20 13:35:15;;;;;;;0.30;0.30;;;25.90;1.00;;;;;;5002333;28;20042;-84
2023/09/20 13:37:45;;;;;;;0.17;0.17;;;25.90;1.00;;;;;;5004065;28;20389;-84
2023/09/20 13:40:18;;;;;;;;;;;25.90;1.00;;;;;;5000493;28;20038;-83
2023/09/20 13:42:45;;;;;;;0.15;0.15;;;26.10;1.00;;;;;;5003415;28;19914;-82